createdAt,value
2022-07-29T00:00:52.104Z,101635.56
2022-07-29T00:03:18.636Z,101631.44
2022-07-29T00:05:45.261Z,101627.19
2022-07-29T00:08:12.727Z,101589.94
2022-07-29T00:10:39.621Z,101572.38
2022-07-29T00:13:06.333Z,101626.94
2022-07-29T00:15:32.892Z,101622.78
2022-07-29T00:17:59.406Z,101583.50
2022-07-29T00:20:25.918Z,101620.31
2022-07-29T00:22:52.365Z,101621.44
2022-07-29T00:25:18.783Z,101624.63
2022-07-29T00:27:45.247Z,101615.94
2022-07-29T00:30:11.924Z,101625.78
2022-07-29T00:32:38.620Z,101631.44
2022-07-29T00:35:06.003Z,101620.97
2022-07-29T00:37:32.557Z,101622.59
2022-07-29T00:39:59.004Z,101622.00
2022-07-29T00:42:25.413Z,101615.22
2022-07-29T00:44:51.869Z,101604.06
2022-07-29T00:47:18.384Z,101563.16
2022-07-29T00:49:44.908Z,101605.03
2022-07-29T00:52:12.530Z,101571.53
2022-07-29T00:54:44.493Z,101610.13
2022-07-29T00:57:12.949Z,101572.75
2022-07-29T00:59:39.462Z,101570.34
2022-07-29T01:02:06.038Z,101603.31
2022-07-29T01:04:33.177Z,101615.06
2022-07-29T01:07:02.351Z,101606.84
2022-07-29T01:09:42.187Z,101617.88
2022-07-29T01:12:15.936Z,101615.59
2022-07-29T01:14:42.926Z,101611.97
2022-07-29T01:17:20.984Z,101578.34
2022-07-29T01:19:53.487Z,101608.53
2022-07-29T01:22:28.891Z,101617.84
2022-07-29T01:25:13.987Z,101597.31
2022-07-29T01:27:56.534Z,101603.28
2022-07-29T01:30:25.751Z,101583.75
2022-07-29T01:32:57.257Z,101592.09
2022-07-29T01:35:34.708Z,101600.00
2022-07-29T01:38:30.208Z,101596.72
2022-07-29T01:41:15.511Z,101601.41
2022-07-29T01:43:52.747Z,101593.13
2022-07-29T01:46:25.429Z,101596.78
2022-07-29T01:48:58.499Z,101596.09
2022-07-29T01:51:30.045Z,101593.22
2022-07-29T01:54:05.134Z,101571.22
2022-07-29T01:56:34.095Z,101585.47
2022-07-29T01:59:03.925Z,101592.06
2022-07-29T02:01:33.574Z,101533.00
2022-07-29T02:04:04.878Z,101581.84
2022-07-29T02:06:34.298Z,101550.56
2022-07-29T02:09:03.140Z,101589.31
2022-07-29T02:11:34.117Z,101577.88
2022-07-29T02:14:02.876Z,101577.47
2022-07-29T02:16:33.014Z,101582.47
2022-07-29T02:19:03.684Z,101553.41
2022-07-29T02:21:32.966Z,101587.56
2022-07-29T02:24:02.753Z,101569.88
2022-07-29T02:26:31.341Z,101586.88
2022-07-29T02:28:59.590Z,101589.53
2022-07-29T02:31:29.647Z,101566.34
2022-07-29T02:33:58.043Z,101592.91
2022-07-29T02:36:25.933Z,101580.91
2022-07-29T02:38:53.741Z,101573.03
2022-07-29T02:41:34.335Z,101588.53
2022-07-29T02:44:10.108Z,101576.25
2022-07-29T02:46:38.614Z,101587.47
2022-07-29T02:49:14.483Z,101573.69
2022-07-29T02:51:47.639Z,101590.56
2022-07-29T02:54:27.013Z,101591.94
2022-07-29T02:56:56.227Z,101591.25
2022-07-29T02:59:25.846Z,101544.72
2022-07-29T03:01:55.168Z,101578.38
2022-07-29T03:04:25.139Z,101532.88
2022-07-29T03:06:53.765Z,101545.81
2022-07-29T03:09:21.754Z,101571.81
2022-07-29T03:11:50.728Z,101555.84
2022-07-29T03:14:21.518Z,101563.81
2022-07-29T03:16:49.120Z,101566.72
2022-07-29T03:19:16.358Z,101579.16
2022-07-29T03:21:42.894Z,101578.16
2022-07-29T03:24:10.839Z,101577.88
2022-07-29T03:26:37.842Z,101586.63
2022-07-29T03:29:04.332Z,101527.44
2022-07-29T03:31:30.841Z,101589.84
2022-07-29T03:33:57.403Z,101576.75
2022-07-29T03:36:23.867Z,101581.78
2022-07-29T03:38:51.215Z,101525.72
2022-07-29T03:41:22.324Z,101580.69
2022-07-29T03:43:51.111Z,101550.25
2022-07-29T03:46:19.089Z,101572.84
2022-07-29T03:48:51.640Z,101562.25
2022-07-29T03:51:18.299Z,101580.88
2022-07-29T03:54:00.371Z,101528.44
2022-07-29T03:56:28.985Z,101507.28
2022-07-29T03:58:55.630Z,101571.09
2022-07-29T04:01:23.390Z,101590.75
2022-07-29T04:03:50.008Z,101573.22
2022-07-29T04:06:16.487Z,101581.22
2022-07-29T04:08:42.926Z,101540.81
2022-07-29T04:11:09.442Z,101594.50
2022-07-29T04:13:35.876Z,101553.03
2022-07-29T04:16:02.348Z,101551.59
2022-07-29T04:18:28.884Z,101600.50
2022-07-29T04:20:55.365Z,101573.94
2022-07-29T04:23:21.833Z,101583.22
2022-07-29T04:25:48.441Z,101606.94
2022-07-29T04:28:14.871Z,101609.69
2022-07-29T04:30:43.648Z,101588.38
2022-07-29T04:33:10.203Z,101574.72
2022-07-29T04:35:50.509Z,101596.69
2022-07-29T04:38:19.039Z,101597.28
2022-07-29T04:40:45.475Z,101605.94
2022-07-29T04:43:14.247Z,101550.31
2022-07-29T04:45:42.176Z,101603.06
2022-07-29T04:48:08.796Z,101598.25
2022-07-29T04:50:35.316Z,101551.19
2022-07-29T04:53:01.728Z,101600.50
2022-07-29T04:55:28.160Z,101607.16
2022-07-29T04:57:54.586Z,101594.44
2022-07-29T05:00:21.230Z,101561.84
2022-07-29T05:02:54.557Z,101606.41
2022-07-29T05:05:21.076Z,101589.91
2022-07-29T05:07:47.504Z,101560.78
2022-07-29T05:10:13.951Z,101618.09
2022-07-29T05:12:40.418Z,101573.00
2022-07-29T05:15:07.415Z,101617.31
2022-07-29T05:17:33.922Z,101568.34
2022-07-29T05:20:00.363Z,101556.13
2022-07-29T05:22:26.808Z,101614.47
2022-07-29T05:24:53.230Z,101624.34
2022-07-29T05:27:20.004Z,101561.38
2022-07-29T05:29:46.452Z,101571.44
2022-07-29T05:32:15.922Z,101598.56
2022-07-29T05:34:50.920Z,101612.06
2022-07-29T05:37:21.495Z,101632.66
2022-07-29T05:39:50.631Z,101583.47
2022-07-29T05:42:22.982Z,101622.78
2022-07-29T05:44:49.517Z,101632.44
2022-07-29T05:47:16.015Z,101634.91
2022-07-29T05:49:42.477Z,101585.16
2022-07-29T05:52:09.202Z,101640.84
2022-07-29T05:54:36.069Z,101595.22
2022-07-29T05:57:03.077Z,101634.41
2022-07-29T05:59:30.567Z,101583.34
2022-07-29T06:01:57.299Z,101629.50
2022-07-29T06:04:23.948Z,101639.16
2022-07-29T06:06:50.419Z,101557.47
2022-07-29T06:09:16.910Z,101582.03
2022-07-29T06:11:43.350Z,101616.53
2022-07-29T06:14:09.846Z,101615.53
2022-07-29T06:16:36.533Z,101604.28
2022-07-29T06:19:03.108Z,101623.00
2022-07-29T06:21:29.574Z,101616.34
2022-07-29T06:23:56.004Z,101567.56
2022-07-29T06:26:30.690Z,101627.91
2022-07-29T06:28:58.036Z,101566.16
2022-07-29T06:31:24.541Z,101566.25
2022-07-29T06:33:51.052Z,101615.81
2022-07-29T06:36:17.486Z,101625.94
2022-07-29T06:38:49.467Z,101583.38
2022-07-29T06:41:18.408Z,101624.88
2022-07-29T06:43:51.081Z,101595.22
2022-07-29T06:46:22.022Z,101633.31
2022-07-29T06:48:49.757Z,101597.28
2022-07-29T06:51:16.553Z,101629.53
2022-07-29T06:53:59.075Z,101638.31
2022-07-29T06:56:29.348Z,101629.19
2022-07-29T06:58:55.919Z,101635.25
2022-07-29T07:01:22.466Z,101637.13
2022-07-29T07:03:49.088Z,101648.97
2022-07-29T07:06:15.550Z,101647.09
2022-07-29T07:08:42.138Z,101608.00
2022-07-29T07:11:09.128Z,101645.78
2022-07-29T07:13:36.634Z,101659.47
2022-07-29T07:16:04.186Z,101665.75
2022-07-29T07:18:30.808Z,101648.84
2022-07-29T07:20:57.931Z,101634.63
2022-07-29T07:23:24.780Z,101656.38
2022-07-29T07:25:51.419Z,101620.63
2022-07-29T07:28:17.957Z,101648.97
2022-07-29T07:30:45.853Z,101658.44
2022-07-29T07:33:12.441Z,101644.06
2022-07-29T07:35:38.894Z,101663.59
2022-07-29T07:38:05.380Z,101607.91
2022-07-29T07:40:31.834Z,101647.88
2022-07-29T07:42:58.448Z,101655.25
2022-07-29T07:45:25.376Z,101636.44
2022-07-29T07:47:51.851Z,101632.69
2022-07-29T07:50:19.177Z,101643.88
2022-07-29T07:52:53.962Z,101655.63
2022-07-29T07:55:20.825Z,101645.47
2022-07-29T07:57:47.958Z,101612.56
2022-07-29T08:00:15.873Z,101650.75
2022-07-29T08:02:42.625Z,101640.97
2022-07-29T08:05:12.842Z,101602.84
2022-07-29T08:07:39.631Z,101646.00
2022-07-29T08:10:06.546Z,101629.22
2022-07-29T08:12:33.059Z,101604.66
2022-07-29T08:14:59.525Z,101649.97
2022-07-29T08:17:25.978Z,101653.22
2022-07-29T08:19:52.410Z,101655.16
2022-07-29T08:22:18.832Z,101665.47
2022-07-29T08:24:45.383Z,101665.75
2022-07-29T08:27:33.372Z,101619.97
2022-07-29T08:29:58.513Z,101648.91
2022-07-29T08:32:43.765Z,101656.78
2022-07-29T08:35:11.437Z,101659.50
2022-07-29T08:37:37.879Z,101678.34
2022-07-29T08:40:04.762Z,101673.34
2022-07-29T08:42:31.440Z,101645.88
2022-07-29T08:44:58.821Z,101670.03
2022-07-29T08:47:26.801Z,101667.25
2022-07-29T08:49:53.285Z,101675.22
2022-07-29T08:52:21.292Z,101660.16
2022-07-29T08:54:48.533Z,101625.97
2022-07-29T08:57:15.729Z,101667.47
2022-07-29T08:59:47.634Z,101651.28
2022-07-29T09:02:20.951Z,101674.47
2022-07-29T09:04:48.159Z,101661.44
2022-07-29T09:07:19.885Z,101661.13
2022-07-29T09:09:47.274Z,101666.00
2022-07-29T09:12:13.918Z,101643.72
2022-07-29T09:14:56.068Z,101662.00
2022-07-29T09:17:47.815Z,101659.41
2022-07-29T09:20:17.811Z,101642.72
2022-07-29T09:22:44.933Z,101661.91
2022-07-29T09:25:13.128Z,101611.53
2022-07-29T09:27:39.814Z,101666.78
2022-07-29T09:30:08.943Z,101658.56
2022-07-29T09:32:55.173Z,101660.72
2022-07-29T09:35:25.072Z,101667.38
2022-07-29T09:37:52.028Z,101668.13
2022-07-29T09:40:20.139Z,101652.81
2022-07-29T09:42:47.472Z,101644.13
2022-07-29T09:45:27.513Z,101625.09
2022-07-29T09:47:54.002Z,101662.44
2022-07-29T09:50:21.265Z,101656.97
2022-07-29T09:52:50.260Z,101617.47
2022-07-29T09:55:18.193Z,101658.72
2022-07-29T09:57:46.212Z,101628.53
2022-07-29T10:00:12.954Z,101661.47
2022-07-29T10:02:44.882Z,101635.28
2022-07-29T10:05:22.841Z,101655.44
2022-07-29T10:07:54.487Z,101637.47
2022-07-29T10:10:27.958Z,101660.03
2022-07-29T10:13:08.030Z,101641.28
2022-07-29T10:15:39.807Z,101610.63
2022-07-29T10:18:07.146Z,101651.00
2022-07-29T10:20:34.052Z,101651.41
2022-07-29T10:23:00.669Z,101671.28
2022-07-29T10:25:27.516Z,101652.44
2022-07-29T10:27:54.739Z,101650.78
2022-07-29T10:30:23.809Z,101655.88
2022-07-29T10:32:55.986Z,101642.88
2022-07-29T10:35:28.998Z,101621.97
2022-07-29T10:38:26.540Z,101656.16
2022-07-29T10:41:19.844Z,101651.09
2022-07-29T10:43:51.297Z,101622.19
2022-07-29T10:46:19.131Z,101643.81
2022-07-29T10:49:08.602Z,101649.78
2022-07-29T10:51:51.180Z,101650.63
2022-07-29T10:54:39.682Z,101650.53
2022-07-29T10:57:19.647Z,101631.41
2022-07-29T10:59:53.066Z,101645.75
2022-07-29T11:02:41.576Z,101645.34
2022-07-29T11:05:09.982Z,101647.41
2022-07-29T11:07:45.668Z,101617.91
2022-07-29T11:10:15.867Z,101640.81
2022-07-29T11:12:42.852Z,101641.00
2022-07-29T11:15:18.165Z,101634.28
2022-07-29T11:17:53.880Z,101636.66
2022-07-29T11:20:46.295Z,101640.41
2022-07-29T11:23:26.313Z,101642.13
2022-07-29T11:26:12.881Z,101635.56
2022-07-29T11:28:51.288Z,101601.41
2022-07-29T11:31:37.236Z,101631.72
2022-07-29T11:34:23.690Z,101637.78
2022-07-29T11:37:10.150Z,101642.03
2022-07-29T11:39:38.465Z,101632.72
2022-07-29T11:42:32.468Z,101631.09
2022-07-29T11:45:08.416Z,101631.19
2022-07-29T11:47:48.937Z,101632.81
2022-07-29T11:50:37.111Z,101640.63
2022-07-29T11:53:12.095Z,101632.31
2022-07-29T11:55:51.236Z,101632.69
2022-07-29T11:58:22.801Z,101596.22
2022-07-29T12:00:52.520Z,101647.53
2022-07-29T12:03:35.138Z,101611.56
2022-07-29T12:06:12.447Z,101640.34
2022-07-29T12:08:43.179Z,101639.63
2022-07-29T12:11:21.406Z,101592.88
2022-07-29T12:13:49.424Z,101633.97
2022-07-29T12:16:16.393Z,101635.78
2022-07-29T12:19:05.345Z,101644.34
2022-07-29T12:21:52.236Z,101616.13
2022-07-29T12:24:26.591Z,101645.28
2022-07-29T12:26:58.715Z,101647.38
2022-07-29T12:29:35.237Z,101601.44
2022-07-29T12:32:04.520Z,101583.69
2022-07-29T12:34:32.072Z,101626.66
2022-07-29T12:36:58.680Z,101586.09
2022-07-29T12:39:25.503Z,101640.91
2022-07-29T12:41:52.284Z,101642.22
2022-07-29T12:44:45.258Z,101633.63
2022-07-29T12:47:11.713Z,101635.50
2022-07-29T12:49:38.371Z,101621.94
2022-07-29T12:52:33.513Z,101630.81
2022-07-29T12:55:00.569Z,101629.06
2022-07-29T12:57:28.214Z,101603.41
2022-07-29T13:00:11.241Z,101643.28
2022-07-29T13:02:38.734Z,101634.66
2022-07-29T13:05:06.545Z,101643.06
2022-07-29T13:07:54.364Z,101637.56
2022-07-29T13:10:24.484Z,101597.06
2022-07-29T13:13:08.817Z,101629.56
2022-07-29T13:15:35.880Z,101596.34
2022-07-29T13:18:02.897Z,101609.09
2022-07-29T13:20:30.519Z,101633.66
2022-07-29T13:23:00.949Z,101609.63
2022-07-29T13:25:32.193Z,101596.84
2022-07-29T13:28:00.510Z,101650.59
2022-07-29T13:30:27.097Z,101604.66
2022-07-29T13:32:53.664Z,101642.13
2022-07-29T13:35:20.431Z,101649.88
2022-07-29T13:37:47.214Z,101655.34
2022-07-29T13:40:14.289Z,101645.81
2022-07-29T13:42:41.720Z,101640.06
2022-07-29T13:45:09.712Z,101639.09
2022-07-29T13:47:36.234Z,101640.72
2022-07-29T13:50:03.016Z,101632.44
2022-07-29T13:52:29.892Z,101610.41
2022-07-29T13:54:57.027Z,101631.56
2022-07-29T13:57:23.524Z,101637.16
2022-07-29T13:59:53.890Z,101617.88
2022-07-29T14:02:25.360Z,101626.56
2022-07-29T14:04:55.939Z,101638.44
2022-07-29T14:07:23.114Z,101646.31
2022-07-29T14:09:49.620Z,101632.31
2022-07-29T14:12:16.063Z,101595.34
2022-07-29T14:14:42.586Z,101629.78
2022-07-29T14:17:10.054Z,101636.44
2022-07-29T14:19:36.911Z,101634.06
2022-07-29T14:22:08.528Z,101652.91
2022-07-29T14:24:37.313Z,101653.66
2022-07-29T14:27:05.383Z,101617.03
2022-07-29T14:29:37.368Z,101649.97
2022-07-29T14:32:06.697Z,101650.56
2022-07-29T14:34:34.009Z,101642.75
2022-07-29T14:37:00.435Z,101650.69
2022-07-29T14:39:26.869Z,101648.31
2022-07-29T14:41:59.081Z,101659.94
2022-07-29T14:44:25.991Z,101644.16
2022-07-29T14:46:52.429Z,101651.31
2022-07-29T14:49:18.899Z,101649.53
2022-07-29T14:51:45.365Z,101644.78
2022-07-29T14:54:11.802Z,101639.28
2022-07-29T14:56:46.638Z,101632.06
2022-07-29T14:59:13.788Z,101651.09
2022-07-29T15:01:40.337Z,101645.66
2022-07-29T15:04:06.872Z,101655.31
2022-07-29T15:06:33.324Z,101650.47
2022-07-29T15:08:59.763Z,101650.63
2022-07-29T15:11:26.243Z,101637.63
2022-07-29T15:13:52.721Z,101654.66
2022-07-29T15:16:19.184Z,101648.25
2022-07-29T15:18:45.684Z,101612.44
2022-07-29T15:21:12.089Z,101652.91
2022-07-29T15:23:38.525Z,101639.28
2022-07-29T15:26:05.418Z,101660.63
2022-07-29T15:28:31.852Z,101647.81
2022-07-29T15:30:58.349Z,101591.97
2022-07-29T15:33:24.788Z,101644.69
2022-07-29T15:35:51.264Z,101657.63
2022-07-29T15:38:17.988Z,101635.72
2022-07-29T15:40:44.443Z,101646.72
2022-07-29T15:43:10.941Z,101609.91
2022-07-29T15:45:40.337Z,101664.28
2022-07-29T15:48:08.786Z,101650.28
2022-07-29T15:50:35.745Z,101654.56
2022-07-29T15:53:02.545Z,101649.06
2022-07-29T15:55:29.046Z,101609.69
2022-07-29T15:58:00.251Z,101640.75
2022-07-29T16:00:27.056Z,101650.50
2022-07-29T16:02:53.527Z,101633.75
2022-07-29T16:05:19.956Z,101644.16
2022-07-29T16:07:46.430Z,101608.53
2022-07-29T16:10:12.906Z,101654.63
2022-07-29T16:12:39.326Z,101644.59
2022-07-29T16:15:09.712Z,101599.88
2022-07-29T16:17:37.294Z,101602.94
2022-07-29T16:20:04.806Z,101652.41
2022-07-29T16:22:31.346Z,101649.69
2022-07-29T16:24:57.798Z,101648.81
2022-07-29T16:27:24.297Z,101647.97
2022-07-29T16:29:50.733Z,101593.69
2022-07-29T16:32:22.098Z,101637.44
2022-07-29T16:34:49.043Z,101644.91
2022-07-29T16:37:15.514Z,101648.44
2022-07-29T16:39:42.888Z,101655.13
2022-07-29T16:42:09.939Z,101653.88
2022-07-29T16:44:38.070Z,101645.25
2022-07-29T16:47:04.597Z,101597.78
2022-07-29T16:49:31.475Z,101635.19
2022-07-29T16:51:57.924Z,101647.53
2022-07-29T16:54:25.387Z,101654.41
2022-07-29T16:56:51.813Z,101618.13
2022-07-29T16:59:18.272Z,101650.03
2022-07-29T17:01:44.735Z,101654.50
2022-07-29T17:04:11.203Z,101623.00
2022-07-29T17:06:40.885Z,101663.56
2022-07-29T17:09:09.036Z,101606.81
2022-07-29T17:11:51.772Z,101633.53
2022-07-29T17:14:23.990Z,101616.44
2022-07-29T17:17:02.901Z,101665.28
2022-07-29T17:19:34.364Z,101663.91
2022-07-29T17:22:12.594Z,101660.88
2022-07-29T17:24:42.376Z,101619.31
2022-07-29T17:27:10.101Z,101632.66
2022-07-29T17:29:36.639Z,101660.59
2022-07-29T17:32:03.091Z,101668.03
2022-07-29T17:34:29.538Z,101666.13
2022-07-29T17:36:57.073Z,101613.34
2022-07-29T17:39:24.056Z,101662.72
2022-07-29T17:41:50.615Z,101631.97
2022-07-29T17:44:17.026Z,101664.16
2022-07-29T17:46:43.513Z,101669.84
2022-07-29T17:49:10.103Z,101672.09
2022-07-29T17:51:36.596Z,101643.53
2022-07-29T17:54:03.197Z,101660.84
2022-07-29T17:56:29.606Z,101606.41
2022-07-29T17:58:56.078Z,101652.22
2022-07-29T18:01:23.452Z,101667.75
2022-07-29T18:03:49.912Z,101639.75
2022-07-29T18:06:16.353Z,101663.97
2022-07-29T18:08:42.758Z,101597.25
2022-07-29T18:11:09.176Z,101661.94
2022-07-29T18:13:41.490Z,101652.41
2022-07-29T18:16:08.263Z,101594.59
2022-07-29T18:18:35.159Z,101650.56
2022-07-29T18:21:02.033Z,101599.91
2022-07-29T18:23:28.456Z,101657.75
2022-07-29T18:25:54.902Z,101610.84
2022-07-29T18:28:21.328Z,101648.41
2022-07-29T18:30:47.951Z,101638.00
2022-07-29T18:33:22.629Z,101649.97
2022-07-29T18:35:51.038Z,101641.72
2022-07-29T18:38:17.981Z,101604.19
2022-07-29T18:40:44.728Z,101647.06
2022-07-29T18:43:12.650Z,101652.94
2022-07-29T18:45:39.577Z,101665.72
2022-07-29T18:48:06.616Z,101656.91
2022-07-29T18:50:33.032Z,101650.53
2022-07-29T18:52:59.580Z,101678.81
2022-07-29T18:55:26.138Z,101676.13
2022-07-29T18:57:54.426Z,101643.31
2022-07-29T19:00:24.129Z,101671.81
2022-07-29T19:02:50.970Z,101680.34
2022-07-29T19:05:17.511Z,101696.88
2022-07-29T19:07:43.967Z,101657.38
2022-07-29T19:10:10.557Z,101647.53
2022-07-29T19:12:36.998Z,101685.59
2022-07-29T19:15:03.801Z,101702.28
2022-07-29T19:17:30.237Z,101703.16
2022-07-29T19:19:56.683Z,101708.44
2022-07-29T19:22:23.564Z,101708.44
2022-07-29T19:24:50.748Z,101649.41
2022-07-29T19:27:17.403Z,101667.22
2022-07-29T19:29:43.859Z,101680.69
2022-07-29T19:32:10.656Z,101666.91
2022-07-29T19:34:37.131Z,101689.81
2022-07-29T19:37:03.790Z,101719.06
2022-07-29T19:39:31.918Z,101736.88
2022-07-29T19:42:03.453Z,101691.94
2022-07-29T19:44:30.260Z,101752.50
2022-07-29T19:46:57.038Z,101744.50
2022-07-29T19:49:23.920Z,101706.50
2022-07-29T19:51:50.441Z,101760.19
2022-07-29T19:54:19.851Z,101758.41
2022-07-29T19:56:46.299Z,101750.75
2022-07-29T19:59:12.731Z,101768.25
2022-07-29T20:01:39.561Z,101709.59
2022-07-29T20:04:06.056Z,101775.97
2022-07-29T20:06:32.645Z,101715.16
2022-07-29T20:08:59.213Z,101767.34
2022-07-29T20:11:25.755Z,101726.13
2022-07-29T20:13:52.171Z,101782.41
2022-07-29T20:16:18.840Z,101761.09
2022-07-29T20:18:45.313Z,101770.50
2022-07-29T20:21:11.770Z,101782.09
2022-07-29T20:23:38.198Z,101732.22
2022-07-29T20:26:09.324Z,101786.66
2022-07-29T20:28:35.842Z,101787.63
2022-07-29T20:31:02.350Z,101785.81
2022-07-29T20:33:28.880Z,101733.75
2022-07-29T20:35:55.314Z,101781.66
2022-07-29T20:38:21.768Z,101784.91
2022-07-29T20:40:48.175Z,101789.97
2022-07-29T20:43:14.578Z,101774.16
2022-07-29T20:45:41.007Z,101741.16
2022-07-29T20:48:08.478Z,101783.03
2022-07-29T20:50:35.042Z,101775.91
2022-07-29T20:53:01.470Z,101754.28
2022-07-29T20:55:28.008Z,101724.94
2022-07-29T20:57:54.421Z,101778.84
2022-07-29T21:00:20.842Z,101771.63
2022-07-29T21:02:47.406Z,101774.88
2022-07-29T21:05:14.055Z,101788.88
2022-07-29T21:07:40.534Z,101778.94
2022-07-29T21:10:07.361Z,101794.09
2022-07-29T21:12:33.796Z,101794.97
2022-07-29T21:15:00.246Z,101798.44
2022-07-29T21:17:26.671Z,101796.91
2022-07-29T21:19:53.108Z,101774.19
2022-07-29T21:22:20.821Z,101800.38
2022-07-29T21:24:47.545Z,101800.53
2022-07-29T21:27:20.621Z,101753.22
2022-07-29T21:29:48.106Z,101792.97
2022-07-29T21:32:14.738Z,101805.84
2022-07-29T21:34:55.941Z,101800.09
2022-07-29T21:37:22.419Z,101809.28
2022-07-29T21:39:48.818Z,101806.22
2022-07-29T21:42:15.279Z,101799.28
2022-07-29T21:44:41.699Z,101803.28
2022-07-29T21:47:09.315Z,101807.59
2022-07-29T21:49:36.124Z,101781.59
2022-07-29T21:52:04.297Z,101747.59
2022-07-29T21:54:31.282Z,101798.41
2022-07-29T21:56:57.912Z,101760.75
2022-07-29T21:59:24.865Z,101805.47
2022-07-29T22:01:51.410Z,101817.56
2022-07-29T22:04:19.064Z,101817.44
2022-07-29T22:06:45.547Z,101828.97
2022-07-29T22:09:12.043Z,101829.53
2022-07-29T22:11:38.518Z,101831.47
2022-07-29T22:14:05.663Z,101808.22
2022-07-29T22:16:32.139Z,101842.34
2022-07-29T22:18:58.615Z,101842.22
2022-07-29T22:21:25.076Z,101797.41
2022-07-29T22:23:51.520Z,101835.84
2022-07-29T22:26:17.990Z,101817.16
2022-07-29T22:28:44.491Z,101806.78
2022-07-29T22:31:11.125Z,101808.22
2022-07-29T22:33:37.870Z,101850.72
2022-07-29T22:36:04.506Z,101857.41
2022-07-29T22:38:30.934Z,101801.78
2022-07-29T22:41:00.674Z,101819.38
2022-07-29T22:43:28.349Z,101836.41
2022-07-29T22:45:54.855Z,101864.81
2022-07-29T22:48:21.351Z,101835.25
2022-07-29T22:50:47.856Z,101870.00
2022-07-29T22:53:14.316Z,101855.97
2022-07-29T22:55:40.782Z,101868.84
2022-07-29T22:58:07.239Z,101833.69
2022-07-29T23:00:33.771Z,101840.81
2022-07-29T23:03:00.384Z,101884.16
2022-07-29T23:05:26.833Z,101833.81
2022-07-29T23:07:53.320Z,101881.88
2022-07-29T23:10:19.760Z,101868.63
2022-07-29T23:12:46.205Z,101870.94
2022-07-29T23:15:12.872Z,101875.91
2022-07-29T23:17:39.445Z,101878.88
2022-07-29T23:20:07.999Z,101893.94
2022-07-29T23:22:35.955Z,101875.88
2022-07-29T23:25:02.619Z,101826.88
2022-07-29T23:27:29.250Z,101879.81
2022-07-29T23:29:55.735Z,101835.19
2022-07-29T23:32:22.210Z,101878.63
2022-07-29T23:34:48.719Z,101883.84
2022-07-29T23:37:15.160Z,101893.38
2022-07-29T23:39:41.820Z,101882.88
2022-07-29T23:42:09.514Z,101879.88
2022-07-29T23:44:35.968Z,101827.19
2022-07-29T23:47:02.894Z,101888.75
2022-07-29T23:49:29.738Z,101865.28
2022-07-29T23:51:56.235Z,101883.88
2022-07-29T23:54:22.754Z,101892.50
2022-07-29T23:56:49.315Z,101841.41
2022-07-29T23:59:15.821Z,101887.59
